createdAt,value
2018-03-22T00:01:33.677Z,100339.22
2018-03-22T00:04:07.711Z,100340.11
2018-03-22T00:06:40.595Z,100344.38
2018-03-22T00:09:13.886Z,100348.26
2018-03-22T00:11:47.456Z,100346.14
2018-03-22T00:14:20.463Z,100346.14
2018-03-22T00:16:54.367Z,100338.88
2018-03-22T00:19:27.723Z,100335.01
2018-03-22T00:22:00.785Z,100328.97
2018-03-22T00:24:34.129Z,100326.45
2018-03-22T00:27:07.053Z,100331.55
2018-03-22T00:29:40.092Z,100325.13
2018-03-22T00:32:13.627Z,100326.44
2018-03-22T00:34:46.935Z,100320.89
2018-03-22T00:37:20.902Z,100316.17
2018-03-22T00:39:53.948Z,100319.20
2018-03-22T00:42:27.706Z,100309.80
2018-03-22T00:45:00.981Z,100309.81
2018-03-22T00:47:33.920Z,100311.06
2018-03-22T00:50:07.423Z,100311.06
2018-03-22T00:52:40.834Z,100305.08
2018-03-22T00:55:13.868Z,100298.70
2018-03-22T00:57:46.859Z,100295.22
2018-03-22T01:00:22.292Z,100296.92
2018-03-22T01:02:55.340Z,100292.62
2018-03-22T01:05:28.359Z,100287.92
2018-03-22T01:08:01.710Z,100282.38
2018-03-22T01:10:34.795Z,100282.76
2018-03-22T01:13:07.806Z,100278.91
2018-03-22T01:15:41.135Z,100278.42
2018-03-22T01:18:14.052Z,100267.27
2018-03-22T01:20:47.096Z,100263.87
2018-03-22T01:23:20.263Z,100263.39
2018-03-22T01:25:53.689Z,100260.81
2018-03-22T01:28:26.729Z,100257.37
2018-03-22T01:30:59.777Z,100253.08
2018-03-22T01:33:34.144Z,100247.92
2018-03-22T01:36:07.339Z,100249.19
2018-03-22T01:38:40.450Z,100247.86
2018-03-22T01:41:13.553Z,100238.31
2018-03-22T01:43:47.117Z,100228.48
2018-03-22T01:46:20.090Z,100229.73
2018-03-22T01:48:53.630Z,100224.59
2018-03-22T01:54:09.848Z,100207.97
2018-03-22T01:56:43.258Z,100205.88
2018-03-22T01:59:16.172Z,100195.12
2018-03-22T02:01:49.451Z,100185.27
2018-03-22T02:04:22.384Z,100185.21
2018-03-22T02:06:55.689Z,100186.11
2018-03-22T02:09:30.498Z,100175.44
2018-03-22T02:12:06.382Z,100176.70
2018-03-22T02:14:39.431Z,100169.80
2018-03-22T02:17:12.616Z,100171.52
2018-03-22T02:19:45.908Z,100159.94
2018-03-22T02:22:19.350Z,100159.48
2018-03-22T02:24:52.513Z,100154.31
2018-03-22T02:27:25.913Z,100153.92
2018-03-22T02:29:59.226Z,100147.97
2018-03-22T02:32:32.780Z,100143.18
2018-03-22T02:35:06.118Z,100134.99
2018-03-22T02:37:40.927Z,100139.70
2018-03-22T02:40:14.813Z,100130.66
2018-03-22T02:42:47.802Z,100133.59
2018-03-22T02:45:21.125Z,100129.61
2018-03-22T02:47:57.032Z,100117.08
2018-03-22T02:50:35.718Z,100110.08
2018-03-22T02:53:09.022Z,100107.42
2018-03-22T02:55:42.281Z,100106.53
2018-03-22T02:58:15.635Z,100094.58
2018-03-22T03:00:49.428Z,100097.98
2018-03-22T03:03:24.434Z,100097.41
2018-03-22T03:05:58.272Z,100091.03
2018-03-22T03:08:31.220Z,100086.74
2018-03-22T03:11:04.518Z,100079.38
2018-03-22T03:13:38.606Z,100078.03
2018-03-22T03:16:11.608Z,100075.95
2018-03-22T03:18:44.453Z,100067.96
2018-03-22T03:21:18.005Z,100064.95
2018-03-22T03:23:51.061Z,100058.92
2018-03-22T03:26:24.466Z,100048.50
2018-03-22T03:28:58.063Z,100041.39
2018-03-22T03:31:31.089Z,100033.18
2018-03-22T03:34:05.392Z,100028.95
2018-03-22T03:36:41.295Z,100027.30
2018-03-22T03:39:14.946Z,100025.98
2018-03-22T03:41:48.722Z,100027.24
2018-03-22T03:44:22.424Z,100027.08
2018-03-22T03:46:55.838Z,100017.83
2018-03-22T03:49:29.042Z,100018.22
2018-03-22T03:52:03.115Z,100016.83
2018-03-22T03:54:36.212Z,100006.02
2018-03-22T03:57:09.555Z,100011.17
2018-03-22T03:59:42.883Z,100007.77
2018-03-22T04:02:16.902Z,100003.09
2018-03-22T04:04:49.876Z,99999.12
2018-03-22T04:07:23.245Z,99997.01
2018-03-22T04:09:56.567Z,99992.72
2018-03-22T04:12:29.870Z,99984.13
2018-03-22T04:15:03.152Z,99987.52
2018-03-22T04:17:36.162Z,99972.38
2018-03-22T04:20:09.535Z,99968.05
2018-03-22T04:22:42.954Z,99962.43
2018-03-22T04:25:16.603Z,99959.81
2018-03-22T04:27:49.629Z,99951.19
2018-03-22T04:30:22.902Z,99946.02
2018-03-22T04:32:55.873Z,99940.02
2018-03-22T04:35:29.100Z,99945.25
2018-03-22T04:38:02.119Z,99943.11
2018-03-22T04:40:35.496Z,99940.09
2018-03-22T04:43:08.978Z,99934.95
2018-03-22T04:45:42.211Z,99937.05
2018-03-22T04:48:15.857Z,99930.63
2018-03-22T04:50:52.321Z,99932.20
2018-03-22T04:53:25.618Z,99938.22
2018-03-22T04:55:58.842Z,99930.06
2018-03-22T04:58:32.234Z,99922.63
2018-03-22T05:01:07.288Z,99917.91
2018-03-22T05:03:40.555Z,99924.27
2018-03-22T05:06:14.274Z,99925.98
2018-03-22T05:08:47.670Z,99919.45
2018-03-22T05:11:20.733Z,99913.52
2018-03-22T05:13:54.175Z,99901.67
2018-03-22T05:16:28.120Z,99902.06
2018-03-22T05:19:01.239Z,99892.47
2018-03-22T05:21:34.418Z,99889.76
2018-03-22T05:24:07.426Z,99882.88
2018-03-22T05:26:41.128Z,99887.13
2018-03-22T05:29:14.592Z,99885.80
2018-03-22T05:31:48.683Z,99892.14
2018-03-22T05:34:21.898Z,99887.23
2018-03-22T05:36:56.300Z,99876.30
2018-03-22T05:39:29.779Z,99873.98
2018-03-22T05:42:02.838Z,99869.20
2018-03-22T05:44:36.551Z,99861.84
2018-03-22T05:47:09.833Z,99863.52
2018-03-22T05:49:43.356Z,99845.89
2018-03-22T05:52:16.649Z,99850.23
2018-03-22T05:54:50.428Z,99850.45
2018-03-22T05:57:28.495Z,99849.95
2018-03-22T06:00:03.186Z,99846.34
2018-03-22T06:02:38.434Z,99838.61
2018-03-22T06:05:12.950Z,99838.75
2018-03-22T06:07:48.446Z,99832.28
2018-03-22T06:10:24.169Z,99830.84
2018-03-22T06:13:04.620Z,99818.41
2018-03-22T06:15:42.851Z,99824.92
2018-03-22T06:18:21.265Z,99819.64
2018-03-22T06:20:55.749Z,99821.43
2018-03-22T06:23:31.663Z,99814.72
2018-03-22T06:26:05.078Z,99810.58
2018-03-22T06:28:40.722Z,99811.98
2018-03-22T06:31:15.335Z,99804.49
2018-03-22T06:33:49.551Z,99764.84
2018-03-22T06:36:23.972Z,99792.09
2018-03-22T06:38:57.337Z,99791.54
2018-03-22T06:41:30.579Z,99780.39
2018-03-22T06:44:04.492Z,99789.22
2018-03-22T06:46:38.186Z,99781.63
2018-03-22T06:49:11.165Z,99783.92
2018-03-22T06:51:45.017Z,99782.41
2018-03-22T06:54:19.279Z,99790.89
2018-03-22T06:56:53.602Z,99776.52
2018-03-22T06:59:27.456Z,99770.05
2018-03-22T07:02:01.236Z,99777.52
2018-03-22T07:04:35.632Z,99769.25
2018-03-22T07:07:10.712Z,99749.87
2018-03-22T07:09:46.457Z,99745.17
2018-03-22T07:12:19.513Z,99751.00
2018-03-22T07:14:53.127Z,99739.50
2018-03-22T07:17:26.930Z,99737.17
2018-03-22T07:20:00.249Z,99745.21
2018-03-22T07:22:33.705Z,99726.97
2018-03-22T07:25:08.108Z,99741.23
2018-03-22T07:27:43.740Z,99743.91
2018-03-22T07:30:18.176Z,99741.00
2018-03-22T07:32:53.293Z,99727.25
2018-03-22T07:35:27.678Z,99722.34
2018-03-22T07:38:03.848Z,99715.14
2018-03-22T07:40:43.983Z,99688.76
2018-03-22T07:43:21.622Z,99716.42
2018-03-22T07:45:55.352Z,99704.88
2018-03-22T07:48:28.936Z,99705.02
2018-03-22T07:51:02.330Z,99699.06
2018-03-22T07:53:38.051Z,99694.58
2018-03-22T07:56:11.815Z,99683.55
2018-03-22T07:58:45.344Z,99692.42
2018-03-22T08:01:18.735Z,99687.73
2018-03-22T08:03:52.734Z,99679.52
2018-03-22T08:06:26.128Z,99677.16
2018-03-22T08:09:00.248Z,99669.49
2018-03-22T08:11:34.946Z,99648.63
2018-03-22T08:14:08.042Z,99650.84
2018-03-22T08:16:41.654Z,99649.66
2018-03-22T08:19:15.522Z,99639.04
2018-03-22T08:21:48.850Z,99640.13
2018-03-22T08:24:21.978Z,99633.98
2018-03-22T08:26:58.037Z,99629.34
2018-03-22T08:29:31.217Z,99625.73
2018-03-22T08:32:06.316Z,99622.90
2018-03-22T08:34:39.498Z,99627.01
2018-03-22T08:37:22.482Z,99625.64
2018-03-22T08:39:57.284Z,99619.61
2018-03-22T08:42:30.454Z,99615.23
2018-03-22T08:45:03.622Z,99612.19
2018-03-22T08:47:40.423Z,99611.94
2018-03-22T08:50:14.446Z,99609.33
2018-03-22T08:52:48.226Z,99600.23
2018-03-22T08:55:21.989Z,99595.45
2018-03-22T08:57:56.315Z,99605.61
2018-03-22T09:00:30.019Z,99586.75
2018-03-22T09:03:03.275Z,99587.27
2018-03-22T09:05:40.076Z,99578.55
2018-03-22T09:08:17.366Z,99578.72
2018-03-22T09:10:50.516Z,99565.28
2018-03-22T09:13:23.855Z,99550.10
2018-03-22T09:15:57.827Z,99555.12
2018-03-22T09:18:31.401Z,99546.25
2018-03-22T09:21:04.765Z,99548.91
2018-03-22T09:23:38.037Z,99548.82
2018-03-22T09:26:11.457Z,99537.71
2018-03-22T09:28:45.062Z,99534.48
2018-03-22T09:31:19.159Z,99512.07
2018-03-22T09:33:52.924Z,99524.03
2018-03-22T09:36:26.990Z,99516.16
2018-03-22T09:39:03.983Z,99522.95
2018-03-22T09:41:38.173Z,99514.09
2018-03-22T09:44:11.831Z,99510.09
2018-03-22T09:46:46.035Z,99507.05
2018-03-22T09:49:19.058Z,99499.86
2018-03-22T09:51:52.250Z,99489.03
2018-03-22T09:54:25.992Z,99485.78
2018-03-22T09:57:00.010Z,99478.00
2018-03-22T09:59:34.431Z,99476.63
2018-03-22T10:02:08.090Z,99470.06
2018-03-22T10:04:41.301Z,99467.39
2018-03-22T10:07:15.239Z,99464.81
2018-03-22T10:09:49.070Z,99451.73
2018-03-22T10:12:22.622Z,99451.90
2018-03-22T10:14:57.710Z,99448.16
2018-03-22T10:17:31.371Z,99447.55
2018-03-22T10:20:06.251Z,99451.56
2018-03-22T10:22:40.810Z,99437.36
2018-03-22T10:25:14.385Z,99444.37
2018-03-22T10:27:49.431Z,99445.84
2018-03-22T10:30:22.722Z,99431.15
2018-03-22T10:32:56.732Z,99440.41
2018-03-22T10:35:33.289Z,99427.67
2018-03-22T10:38:08.064Z,99423.70
2018-03-22T10:40:45.131Z,99420.04
2018-03-22T10:43:18.480Z,99415.77
2018-03-22T10:45:53.198Z,99410.05
2018-03-22T10:48:26.371Z,99402.39
2018-03-22T10:51:00.270Z,99397.73
2018-03-22T10:53:34.139Z,99399.73
2018-03-22T10:56:07.398Z,99390.53
2018-03-22T10:58:42.715Z,99402.66
2018-03-22T11:01:23.993Z,99404.66
2018-03-22T11:03:57.408Z,99395.80
2018-03-22T11:06:31.675Z,99402.93
2018-03-22T11:09:05.236Z,99401.91
2018-03-22T11:11:38.363Z,99390.29
2018-03-22T11:16:51.865Z,99389.39
2018-03-22T11:19:26.516Z,99387.45
2018-03-22T11:21:59.855Z,99386.38
2018-03-22T11:24:33.850Z,99380.48
2018-03-22T11:27:08.790Z,99380.58
2018-03-22T11:29:42.045Z,99367.03
2018-03-22T11:32:17.009Z,99376.10
2018-03-22T11:34:50.276Z,99373.23
2018-03-22T11:37:24.938Z,99368.07
2018-03-22T11:39:59.319Z,99363.92
2018-03-22T11:45:10.133Z,99356.86
2018-03-22T11:47:45.388Z,99353.77
2018-03-22T11:50:19.901Z,99352.28
2018-03-22T11:52:58.868Z,99356.31
2018-03-22T11:55:32.722Z,99349.23
2018-03-22T11:58:07.628Z,99351.58
2018-03-22T12:00:42.505Z,99349.95
2018-03-22T12:03:18.164Z,99349.94
2018-03-22T12:05:54.642Z,99348.95
2018-03-22T12:08:29.683Z,99349.63
2018-03-22T12:11:08.130Z,99349.66
2018-03-22T12:13:43.277Z,99353.70
2018-03-22T12:16:16.807Z,99355.50
2018-03-22T12:18:50.455Z,99344.23
2018-03-22T12:21:25.236Z,99345.31
2018-03-22T12:24:04.478Z,99351.22
2018-03-22T12:26:37.726Z,99348.91
2018-03-22T12:29:11.517Z,99345.80
2018-03-22T12:31:54.553Z,99334.72
2018-03-22T12:34:27.972Z,99346.52
2018-03-22T12:37:07.298Z,99347.33
2018-03-22T12:39:46.929Z,99344.45
2018-03-22T12:42:23.270Z,99339.13
2018-03-22T12:44:58.131Z,99335.57
2018-03-22T12:47:34.456Z,99345.31
2018-03-22T12:50:12.873Z,99333.02
2018-03-22T12:52:50.170Z,99324.94
2018-03-22T12:55:25.844Z,99318.49
2018-03-22T12:58:02.228Z,99320.30
2018-03-22T13:00:37.942Z,99326.20
2018-03-22T13:03:11.545Z,99325.66
2018-03-22T13:05:46.802Z,99330.34
2018-03-22T13:08:19.958Z,99320.95
2018-03-22T13:10:55.768Z,99322.22
2018-03-22T13:13:33.016Z,99315.92
2018-03-22T13:16:08.308Z,99320.47
2018-03-22T13:18:42.549Z,99312.60
2018-03-22T13:21:16.374Z,99316.64
2018-03-22T13:23:51.126Z,99315.95
2018-03-22T13:26:24.987Z,99318.10
2018-03-22T13:29:00.604Z,99311.27
2018-03-22T13:31:37.891Z,99308.81
2018-03-22T13:35:14.000Z,99315.41
2018-03-22T13:37:48.742Z,99313.52
2018-03-22T13:40:24.115Z,99307.23
2018-03-22T13:42:58.278Z,99306.25
2018-03-22T13:45:32.093Z,99298.95
2018-03-22T13:48:15.536Z,99296.27
2018-03-22T13:50:49.982Z,99289.27
2018-03-22T13:53:23.500Z,99297.77
2018-03-22T13:55:57.169Z,99288.82
2018-03-22T13:58:30.947Z,99291.77
2018-03-22T14:01:14.863Z,99290.48
2018-03-22T14:03:49.107Z,99286.55
2018-03-22T14:06:22.775Z,99280.94
2018-03-22T14:08:57.098Z,99280.30
2018-03-22T14:11:30.897Z,99275.52
2018-03-22T14:14:05.937Z,99278.58
2018-03-22T14:16:39.429Z,99262.50
2018-03-22T14:19:12.990Z,99267.23
2018-03-22T14:21:47.361Z,99259.76
2018-03-22T14:24:21.210Z,99254.17
2018-03-22T14:26:54.553Z,99258.86
2018-03-22T14:29:27.699Z,99252.42
2018-03-22T14:32:01.440Z,99259.15
2018-03-22T14:34:37.312Z,99254.70
2018-03-22T14:37:11.093Z,99254.06
2018-03-22T14:39:44.328Z,99250.92
2018-03-22T14:42:17.869Z,99248.54
2018-03-22T14:44:51.005Z,99238.91
2018-03-22T14:47:24.128Z,99228.17
2018-03-22T14:49:58.685Z,99227.41
2018-03-22T14:52:32.665Z,99223.45
2018-03-22T14:55:06.984Z,99223.31
2018-03-22T14:57:41.456Z,99223.33
2018-03-22T15:00:16.003Z,99223.59
2018-03-22T15:02:50.772Z,99219.67
2018-03-22T15:05:25.705Z,99211.17
2018-03-22T15:07:59.010Z,99222.31
2018-03-22T15:10:32.211Z,99221.16
2018-03-22T15:13:07.264Z,99204.80
2018-03-22T15:15:44.961Z,99216.98
2018-03-22T15:18:21.638Z,99211.17
2018-03-22T15:20:56.520Z,99208.55
2018-03-22T15:23:30.204Z,99212.58
2018-03-22T15:26:05.313Z,99206.17
2018-03-22T15:28:40.268Z,99196.13
2018-03-22T15:31:14.911Z,99204.41
2018-03-22T15:33:52.032Z,99204.62
2018-03-22T15:36:37.241Z,99213.45
2018-03-22T15:39:11.344Z,99209.82
2018-03-22T15:41:45.524Z,99208.64
2018-03-22T15:44:18.499Z,99206.16
2018-03-22T15:46:51.578Z,99196.73
2018-03-22T15:49:26.119Z,99206.83
2018-03-22T15:51:59.527Z,99204.34
2018-03-22T15:54:32.720Z,99204.88
2018-03-22T15:57:06.765Z,99205.45
2018-03-22T15:59:40.443Z,99203.89
2018-03-22T16:02:15.253Z,99205.02
2018-03-22T16:04:50.538Z,99202.32
2018-03-22T16:07:23.672Z,99204.80
2018-03-22T16:09:57.179Z,99201.38
2018-03-22T16:12:31.547Z,99203.09
2018-03-22T16:15:05.409Z,99213.63
2018-03-22T16:17:38.961Z,99213.37
2018-03-22T16:20:13.198Z,99215.45
2018-03-22T16:22:47.038Z,99212.80
2018-03-22T16:25:21.221Z,99214.33
2018-03-22T16:27:54.818Z,99217.67
2018-03-22T16:30:28.210Z,99220.87
2018-03-22T16:33:01.648Z,99226.29
2018-03-22T16:35:35.334Z,99222.61
2018-03-22T16:38:08.393Z,99224.75
2018-03-22T16:40:43.111Z,99227.58
2018-03-22T16:43:17.025Z,99231.98
2018-03-22T16:45:50.744Z,99231.47
2018-03-22T16:48:25.077Z,99223.28
2018-03-22T16:50:58.666Z,99211.80
2018-03-22T16:53:33.533Z,99216.67
2018-03-22T16:56:09.532Z,99215.37
2018-03-22T16:58:44.232Z,99214.27
2018-03-22T17:01:18.417Z,99209.53
2018-03-22T17:03:52.543Z,99210.38
2018-03-22T17:06:26.711Z,99214.38
2018-03-22T17:09:00.210Z,99214.53
2018-03-22T17:11:34.595Z,99212.89
2018-03-22T17:14:24.720Z,99214.50
2018-03-22T17:17:06.945Z,99219.31
2018-03-22T17:19:41.945Z,99218.08
2018-03-22T17:22:15.557Z,99212.48
2018-03-22T17:24:49.272Z,99213.42
2018-03-22T17:27:22.701Z,99212.67
2018-03-22T17:29:56.331Z,99220.11
2018-03-22T17:32:29.369Z,99216.91
2018-03-22T17:35:03.058Z,99211.17
2018-03-22T17:37:36.347Z,99213.97
2018-03-22T17:40:09.673Z,99204.59
2018-03-22T17:42:43.044Z,99204.55
2018-03-22T17:45:18.466Z,99208.02
2018-03-22T17:47:52.454Z,99203.13
2018-03-22T17:50:27.242Z,99211.05
2018-03-22T17:53:00.911Z,99211.59
2018-03-22T17:55:35.053Z,99203.92
2018-03-22T17:58:08.896Z,99209.38
2018-03-22T18:00:42.862Z,99205.50
2018-03-22T18:03:17.630Z,99206.27
2018-03-22T18:05:51.263Z,99213.84
2018-03-22T18:08:25.776Z,99207.38
2018-03-22T18:11:00.447Z,99210.03
2018-03-22T18:13:33.777Z,99214.70
2018-03-22T18:16:07.289Z,99210.35
2018-03-22T18:18:40.470Z,99214.23
2018-03-22T18:21:13.549Z,99212.89
2018-03-22T18:23:46.992Z,99219.20
2018-03-22T18:26:20.433Z,99215.91
2018-03-22T18:28:54.796Z,99220.83
2018-03-22T18:31:28.309Z,99218.47
2018-03-22T18:34:01.942Z,99225.29
2018-03-22T18:36:35.991Z,99217.37
2018-03-22T18:39:09.712Z,99219.54
2018-03-22T18:41:42.976Z,99218.49
2018-03-22T18:44:16.761Z,99221.61
2018-03-22T18:46:50.165Z,99213.64
2018-03-22T18:49:23.543Z,99215.73
2018-03-22T18:51:57.558Z,99214.98
2018-03-22T18:54:31.218Z,99218.92
2018-03-22T18:57:04.965Z,99219.74
2018-03-22T18:59:50.122Z,99212.64
2018-03-22T19:02:23.575Z,99213.73
2018-03-22T19:04:57.432Z,99207.96
2018-03-22T19:07:31.101Z,99205.27
2018-03-22T19:10:04.339Z,99212.97
2018-03-22T19:12:38.222Z,99208.41
2018-03-22T19:15:12.459Z,99207.91
2018-03-22T19:17:46.683Z,99211.84
2018-03-22T19:20:20.542Z,99206.34
2018-03-22T19:22:53.961Z,99204.57
2018-03-22T19:25:27.920Z,99202.91
2018-03-22T19:28:02.079Z,99205.77
2018-03-22T19:30:37.798Z,99212.02
2018-03-22T19:33:14.804Z,99208.94
2018-03-22T19:35:48.937Z,99209.98
2018-03-22T19:38:22.679Z,99206.89
2018-03-22T19:40:58.124Z,99206.84
2018-03-22T19:43:40.300Z,99212.17
2018-03-22T19:46:17.962Z,99213.41
2018-03-22T19:48:53.706Z,99210.88
2018-03-22T19:51:27.288Z,99206.80
2018-03-22T19:54:00.674Z,99205.27
2018-03-22T19:56:37.348Z,99191.72
2018-03-22T19:59:11.782Z,99203.75
2018-03-22T20:01:46.076Z,99200.35
2018-03-22T20:04:19.615Z,99189.67
2018-03-22T20:06:58.249Z,99198.59
2018-03-22T20:09:32.041Z,99195.48
2018-03-22T20:12:06.095Z,99203.77
2018-03-22T20:14:39.103Z,99210.67
2018-03-22T20:17:12.557Z,99205.41
2018-03-22T20:19:46.387Z,99205.96
2018-03-22T20:22:19.858Z,99201.84
2018-03-22T20:24:54.026Z,99203.86
2018-03-22T20:27:27.941Z,99197.25
2018-03-22T20:30:01.387Z,99195.16
2018-03-22T20:32:34.721Z,99187.68
2018-03-22T20:35:09.892Z,99191.77
2018-03-22T20:37:43.056Z,99194.37
2018-03-22T20:40:16.443Z,99192.08
2018-03-22T20:42:50.260Z,99182.03
2018-03-22T20:47:55.922Z,99180.44
2018-03-22T20:50:29.164Z,99178.69
2018-03-22T20:53:02.569Z,99175.59
2018-03-22T20:55:36.275Z,99171.02
2018-03-22T20:58:13.240Z,99176.47
2018-03-22T21:00:50.894Z,99175.06
2018-03-22T21:03:25.563Z,99170.22
2018-03-22T21:06:00.062Z,99169.66
2018-03-22T21:08:35.098Z,99174.22
2018-03-22T21:11:08.339Z,99173.77
2018-03-22T21:13:41.740Z,99180.27
2018-03-22T21:16:15.737Z,99177.50
2018-03-22T21:18:48.896Z,99184.76
2018-03-22T21:21:22.157Z,99185.66
2018-03-22T21:23:56.515Z,99182.39
2018-03-22T21:26:29.558Z,99191.17
2018-03-22T21:29:03.517Z,99185.39
2018-03-22T21:31:37.487Z,99182.38
2018-03-22T21:34:10.803Z,99180.65
2018-03-22T21:36:46.854Z,99180.03
2018-03-22T21:39:19.978Z,99179.59
2018-03-22T21:42:02.101Z,99177.02
2018-03-22T21:44:36.353Z,99179.83
2018-03-22T21:47:18.428Z,99178.46
2018-03-22T21:49:51.664Z,99180.99
2018-03-22T21:52:45.884Z,99176.83
2018-03-22T21:55:19.592Z,99169.09
2018-03-22T21:57:52.750Z,99169.28
2018-03-22T22:00:27.996Z,99171.63
2018-03-22T22:03:01.470Z,99161.81
2018-03-22T22:05:34.996Z,99165.02
2018-03-22T22:08:08.172Z,99167.03
2018-03-22T22:10:42.663Z,99169.88
2018-03-22T22:13:16.359Z,99161.21
2018-03-22T22:15:49.718Z,99163.23
2018-03-22T22:18:24.875Z,99151.30
2018-03-22T22:21:00.284Z,99158.06
2018-03-22T22:23:33.433Z,99143.73
2018-03-22T22:26:06.455Z,99140.88
2018-03-22T22:28:39.752Z,99144.05
2018-03-22T22:31:12.846Z,99141.29
2018-03-22T22:33:46.860Z,99139.86
2018-03-22T22:36:20.459Z,99120.64
2018-03-22T22:38:53.393Z,99123.57
2018-03-22T22:41:26.499Z,99118.52
2018-03-22T22:43:59.537Z,99115.56
2018-03-22T22:46:33.708Z,99118.89
2018-03-22T22:49:06.787Z,99111.59
2018-03-22T22:51:40.087Z,99112.55
2018-03-22T22:54:13.054Z,99115.69
2018-03-22T22:56:46.377Z,99117.33
2018-03-22T22:59:19.681Z,99105.52
2018-03-22T23:01:52.585Z,99105.98
2018-03-22T23:04:26.240Z,99097.98
2018-03-22T23:07:00.889Z,99098.40
2018-03-22T23:09:34.827Z,99097.26
2018-03-22T23:12:09.069Z,99098.06
2018-03-22T23:14:42.974Z,99085.10
2018-03-22T23:17:16.783Z,99084.89
2018-03-22T23:19:50.238Z,99082.80
2018-03-22T23:22:23.705Z,99080.87
2018-03-22T23:24:56.776Z,99079.09
2018-03-22T23:27:30.267Z,99087.17
2018-03-22T23:30:04.053Z,99082.91
2018-03-22T23:32:37.000Z,99084.09
2018-03-22T23:35:10.291Z,99075.90
2018-03-22T23:37:44.981Z,99075.53
2018-03-22T23:40:18.032Z,99079.58
2018-03-22T23:42:51.424Z,99074.45
2018-03-22T23:45:24.747Z,99075.11
2018-03-22T23:47:57.743Z,99075.45
2018-03-22T23:50:31.190Z,99067.15
2018-03-22T23:53:04.655Z,99069.30
2018-03-22T23:55:37.547Z,99072.75
2018-03-22T23:58:10.934Z,99065.06
